createdAt,value
2019-02-09T00:01:17.120Z,2.80
2019-02-09T00:03:46.648Z,2.43
2019-02-09T00:06:16.222Z,2.87
2019-02-09T00:08:45.942Z,2.50
2019-02-09T00:11:15.948Z,2.60
2019-02-09T00:13:45.742Z,3.07
2019-02-09T00:16:15.317Z,2.97
2019-02-09T00:18:45.328Z,2.77
2019-02-09T00:21:15.066Z,3.40
2019-02-09T00:23:45.013Z,3.00
2019-02-09T00:26:14.466Z,3.00
2019-02-09T00:28:44.088Z,3.00
2019-02-09T00:31:13.777Z,3.03
2019-02-09T00:33:43.806Z,3.17
2019-02-09T00:36:13.413Z,3.30
2019-02-09T00:38:42.910Z,3.50
2019-02-09T00:41:12.521Z,3.40
2019-02-09T00:43:41.997Z,3.23
2019-02-09T00:46:11.607Z,3.57
2019-02-09T00:48:41.516Z,3.20
2019-02-09T00:51:11.049Z,3.40
2019-02-09T00:53:41.645Z,3.53
2019-02-09T00:56:11.488Z,3.50
2019-02-09T00:58:42.097Z,3.23
2019-02-09T01:01:11.616Z,3.97
2019-02-09T01:03:41.408Z,4.20
2019-02-09T01:06:11.256Z,3.63
2019-02-09T01:08:41.209Z,3.87
2019-02-09T01:11:10.762Z,3.37
2019-02-09T01:13:40.438Z,3.30
2019-02-09T01:16:10.243Z,3.50
2019-02-09T01:18:40.268Z,3.97
2019-02-09T01:21:09.809Z,3.40
2019-02-09T01:23:39.670Z,3.30
2019-02-09T01:26:09.321Z,3.80
2019-02-09T01:28:38.976Z,3.40
2019-02-09T01:31:09.020Z,3.67
2019-02-09T01:33:38.734Z,3.70
2019-02-09T01:36:08.466Z,3.33
2019-02-09T01:38:38.261Z,3.57
2019-02-09T01:41:07.940Z,3.33
2019-02-09T01:43:38.067Z,3.40
2019-02-09T01:46:07.677Z,3.47
2019-02-09T01:48:37.293Z,3.50
2019-02-09T01:51:07.026Z,3.40
2019-02-09T01:53:36.595Z,3.40
2019-02-09T01:56:07.404Z,3.03
2019-02-09T01:58:37.481Z,3.00
2019-02-09T02:01:07.451Z,3.07
2019-02-09T02:03:37.291Z,3.40
2019-02-09T02:06:07.060Z,3.40
2019-02-09T02:08:36.605Z,3.23
2019-02-09T02:11:06.627Z,3.37
2019-02-09T02:13:36.273Z,2.90
2019-02-09T02:16:06.462Z,3.40
2019-02-09T02:18:36.052Z,3.70
2019-02-09T02:21:08.772Z,3.60
2019-02-09T02:23:38.645Z,3.50
2019-02-09T02:26:08.738Z,3.40
2019-02-09T02:28:38.497Z,3.23
2019-02-09T02:31:08.381Z,3.43
2019-02-09T02:33:38.364Z,3.50
2019-02-09T02:36:08.449Z,3.60
2019-02-09T02:38:38.318Z,3.30
2019-02-09T02:41:08.487Z,3.40
2019-02-09T02:43:38.128Z,3.70
2019-02-09T02:46:07.723Z,3.47
2019-02-09T02:48:37.576Z,3.90
2019-02-09T02:51:07.544Z,3.80
2019-02-09T02:53:37.206Z,3.80
2019-02-09T02:56:07.281Z,3.57
2019-02-09T02:58:38.082Z,4.00
2019-02-09T03:01:07.827Z,3.60
2019-02-09T03:03:37.474Z,3.17
2019-02-09T03:06:07.210Z,3.67
2019-02-09T03:08:37.032Z,3.97
2019-02-09T03:11:06.702Z,4.13
2019-02-09T03:13:36.445Z,3.40
2019-02-09T03:16:06.229Z,3.30
2019-02-09T03:18:36.324Z,3.20
2019-02-09T03:21:12.075Z,3.60
2019-02-09T03:23:42.012Z,3.80
2019-02-09T03:26:11.940Z,3.37
2019-02-09T03:28:42.097Z,2.93
2019-02-09T03:31:11.749Z,3.47
2019-02-09T03:33:41.511Z,3.30
2019-02-09T03:36:11.849Z,3.67
2019-02-09T03:38:41.893Z,3.53
2019-02-09T03:41:11.458Z,3.53
2019-02-09T03:43:41.112Z,3.10
2019-02-09T03:46:10.921Z,3.33
2019-02-09T03:48:40.597Z,3.60
2019-02-09T03:51:10.440Z,3.83
2019-02-09T03:53:40.605Z,3.57
2019-02-09T03:56:10.601Z,3.70
2019-02-09T03:58:40.657Z,3.50
2019-02-09T04:01:11.533Z,3.20
2019-02-09T04:03:41.652Z,3.20
2019-02-09T04:06:11.257Z,3.80
2019-02-09T04:08:41.077Z,3.90
2019-02-09T04:11:10.712Z,4.30
2019-02-09T04:13:40.356Z,3.50
2019-02-09T04:16:09.893Z,3.60
2019-02-09T04:18:39.266Z,3.70
2019-02-09T04:21:08.980Z,3.20
2019-02-09T04:23:38.416Z,3.60
2019-02-09T04:26:07.978Z,3.70
2019-02-09T04:28:37.737Z,3.87
2019-02-09T04:31:07.690Z,3.20
2019-02-09T04:33:37.392Z,3.20
2019-02-09T04:36:07.247Z,3.60
2019-02-09T04:38:37.193Z,3.33
2019-02-09T04:41:06.912Z,3.57
2019-02-09T04:43:36.791Z,3.67
2019-02-09T04:46:06.496Z,3.20
2019-02-09T04:48:36.421Z,3.50
2019-02-09T04:51:06.117Z,3.47
2019-02-09T04:53:36.109Z,3.07
2019-02-09T04:56:05.485Z,3.23
2019-02-09T04:58:35.045Z,3.67
2019-02-09T05:01:04.744Z,4.00
2019-02-09T05:03:35.613Z,4.10
2019-02-09T05:06:05.322Z,3.80
2019-02-09T05:08:35.201Z,3.90
2019-02-09T05:11:05.295Z,3.50
2019-02-09T05:13:34.942Z,3.30
2019-02-09T05:16:04.945Z,3.43
2019-02-09T05:18:34.589Z,3.83
2019-02-09T05:21:04.080Z,3.83
2019-02-09T05:23:33.905Z,3.90
2019-02-09T05:26:03.505Z,3.23
2019-02-09T05:28:33.312Z,3.67
2019-02-09T05:31:02.756Z,4.00
2019-02-09T05:33:32.977Z,3.73
2019-02-09T05:36:02.620Z,3.37
2019-02-09T05:38:32.124Z,3.60
2019-02-09T05:41:01.667Z,3.80
2019-02-09T05:43:31.768Z,3.67
2019-02-09T05:46:01.457Z,3.90
2019-02-09T05:48:30.923Z,3.67
2019-02-09T05:51:00.383Z,3.67
2019-02-09T05:53:30.102Z,3.37
2019-02-09T05:56:00.257Z,3.63
2019-02-09T05:58:29.774Z,4.37
2019-02-09T06:00:59.223Z,4.07
2019-02-09T06:03:28.921Z,4.10
2019-02-09T06:05:59.404Z,4.57
2019-02-09T06:08:28.840Z,5.10
2019-02-09T06:10:58.607Z,5.67
2019-02-09T06:13:28.512Z,5.80
2019-02-09T06:15:58.030Z,5.60
2019-02-09T06:18:27.448Z,5.37
2019-02-09T06:20:57.041Z,6.10
2019-02-09T06:23:26.388Z,6.10
2019-02-09T06:25:56.130Z,5.80
2019-02-09T06:28:25.600Z,6.30
2019-02-09T06:30:55.199Z,5.83
2019-02-09T06:33:25.424Z,5.07
2019-02-09T06:35:56.767Z,5.37
2019-02-09T06:38:28.593Z,5.10
2019-02-09T06:41:05.155Z,3.90
2019-02-09T06:43:35.011Z,3.57
2019-02-09T06:46:04.472Z,3.07
2019-02-09T06:48:33.829Z,2.70
2019-02-09T06:51:03.496Z,2.53
2019-02-09T06:53:33.072Z,2.53
2019-02-09T06:56:02.881Z,2.60
2019-02-09T06:58:32.357Z,3.00
2019-02-09T07:01:08.373Z,3.00
2019-02-09T07:03:37.784Z,2.70
2019-02-09T07:06:07.224Z,2.93
2019-02-09T07:08:38.337Z,2.50
2019-02-09T07:11:07.857Z,3.07
2019-02-09T07:13:38.180Z,2.80
2019-02-09T07:16:15.470Z,2.90
2019-02-09T07:18:45.629Z,3.10
2019-02-09T07:21:15.281Z,3.60
2019-02-09T07:23:44.891Z,3.90
2019-02-09T07:26:14.669Z,4.10
2019-02-09T07:28:44.005Z,5.00
2019-02-09T07:31:13.604Z,4.30
2019-02-09T07:33:43.634Z,5.23
2019-02-09T07:36:13.368Z,5.33
2019-02-09T07:38:42.813Z,5.40
2019-02-09T07:41:12.608Z,5.03
2019-02-09T07:43:42.765Z,5.37
2019-02-09T07:46:12.415Z,4.63
2019-02-09T07:49:03.061Z,4.80
2019-02-09T07:51:32.680Z,4.33
2019-02-09T07:54:02.402Z,4.63
2019-02-09T07:56:31.884Z,4.03
2019-02-09T07:59:01.256Z,4.70
2019-02-09T08:01:31.414Z,4.40
2019-02-09T08:04:01.554Z,4.60
2019-02-09T08:06:30.968Z,4.13
2019-02-09T08:09:00.461Z,4.30
2019-02-09T08:11:31.468Z,3.90
2019-02-09T08:14:00.915Z,3.83
2019-02-09T08:16:30.724Z,4.10
2019-02-09T08:19:00.353Z,3.60
2019-02-09T08:21:29.755Z,4.00
2019-02-09T08:23:59.281Z,3.30
2019-02-09T08:26:31.016Z,3.37
2019-02-09T08:29:00.785Z,3.20
2019-02-09T08:31:30.485Z,3.30
2019-02-09T08:34:00.285Z,3.17
2019-02-09T08:36:30.033Z,3.20
2019-02-09T08:39:00.300Z,3.20
2019-02-09T08:41:29.910Z,3.00
2019-02-09T08:43:59.609Z,3.40
2019-02-09T08:46:29.149Z,2.63
2019-02-09T08:49:00.338Z,2.70
2019-02-09T08:51:30.220Z,2.90
2019-02-09T08:53:59.647Z,2.93
2019-02-09T08:56:29.035Z,3.00
2019-02-09T08:58:58.783Z,3.13
2019-02-09T09:01:29.641Z,3.40
2019-02-09T09:03:59.377Z,3.03
2019-02-09T09:06:28.918Z,3.60
2019-02-09T09:08:58.656Z,3.57
2019-02-09T09:11:28.893Z,3.10
2019-02-09T09:13:58.270Z,2.80
2019-02-09T09:16:28.660Z,3.37
2019-02-09T09:18:58.128Z,2.90
2019-02-09T09:21:27.498Z,3.23
2019-02-09T09:23:57.064Z,3.10
2019-02-09T09:26:26.407Z,3.13
2019-02-09T09:28:56.030Z,3.20
2019-02-09T09:31:25.534Z,2.87
2019-02-09T09:33:54.977Z,3.30
2019-02-09T09:36:24.432Z,3.30
2019-02-09T09:38:54.145Z,2.90
2019-02-09T09:41:23.497Z,3.07
2019-02-09T09:43:53.124Z,3.43
2019-02-09T09:46:22.500Z,2.97
2019-02-09T09:48:51.850Z,3.40
2019-02-09T09:51:21.470Z,3.40
2019-02-09T09:53:50.906Z,3.03
2019-02-09T09:56:20.593Z,3.27
2019-02-09T09:58:50.113Z,3.23
2019-02-09T10:01:19.489Z,3.10
2019-02-09T10:03:48.932Z,3.07
2019-02-09T10:06:18.382Z,3.57
2019-02-09T10:08:47.857Z,3.30
2019-02-09T10:11:17.573Z,3.70
2019-02-09T10:13:47.013Z,3.10
2019-02-09T10:16:16.620Z,3.70
2019-02-09T10:18:45.960Z,3.03
2019-02-09T10:21:15.415Z,3.37
2019-02-09T10:23:45.510Z,3.27
2019-02-09T10:26:15.054Z,3.10
2019-02-09T10:28:44.440Z,3.00
2019-02-09T10:31:14.193Z,3.40
2019-02-09T10:33:43.633Z,2.93
2019-02-09T10:36:13.073Z,3.50
2019-02-09T10:38:42.802Z,3.23
2019-02-09T10:41:12.413Z,2.67
2019-02-09T10:43:42.302Z,2.73
2019-02-09T10:46:12.344Z,2.93
2019-02-09T10:48:41.849Z,2.80
2019-02-09T10:51:11.545Z,3.37
2019-02-09T10:53:41.329Z,2.80
2019-02-09T10:56:10.785Z,3.00
2019-02-09T10:58:40.463Z,3.43
2019-02-09T11:01:12.805Z,3.10
2019-02-09T11:03:42.148Z,3.23
2019-02-09T11:06:11.504Z,3.60
2019-02-09T11:08:40.977Z,3.23
2019-02-09T11:11:10.348Z,3.37
2019-02-09T11:13:39.869Z,3.17
2019-02-09T11:16:09.386Z,3.40
2019-02-09T11:18:39.600Z,3.07
2019-02-09T11:21:09.339Z,3.43
2019-02-09T11:23:38.680Z,4.10
2019-02-09T11:26:08.571Z,3.53
2019-02-09T11:28:37.940Z,3.93
2019-02-09T11:31:07.501Z,3.20
2019-02-09T11:33:37.365Z,3.77
2019-02-09T11:36:06.810Z,4.40
2019-02-09T11:38:36.653Z,4.37
2019-02-09T11:41:07.195Z,3.50
2019-02-09T11:43:36.728Z,3.77
2019-02-09T11:46:06.504Z,3.40
2019-02-09T11:48:36.259Z,3.70
2019-02-09T11:51:05.801Z,4.00
2019-02-09T11:53:38.881Z,4.03
2019-02-09T11:56:08.321Z,3.90
2019-02-09T11:58:37.769Z,4.03
2019-02-09T12:01:07.421Z,4.50
2019-02-09T12:03:37.671Z,3.97
2019-02-09T12:06:07.427Z,3.87
2019-02-09T12:08:37.049Z,4.17
2019-02-09T12:11:07.217Z,4.23
2019-02-09T12:13:36.569Z,4.07
2019-02-09T12:16:07.118Z,4.10
2019-02-09T12:18:36.567Z,3.77
2019-02-09T12:21:07.020Z,4.13
2019-02-09T12:23:36.386Z,4.20
2019-02-09T12:26:06.354Z,3.80
2019-02-09T12:28:36.185Z,3.77
2019-02-09T12:31:05.756Z,4.13
2019-02-09T12:33:35.101Z,3.87
2019-02-09T12:36:04.845Z,3.97
2019-02-09T12:38:34.217Z,3.90
2019-02-09T12:41:03.564Z,3.53
2019-02-09T12:43:33.195Z,4.20
2019-02-09T12:46:02.657Z,3.93
2019-02-09T12:48:32.145Z,3.70
2019-02-09T12:51:01.509Z,3.57
2019-02-09T12:53:30.913Z,4.07
2019-02-09T12:56:00.496Z,3.50
2019-02-09T12:58:29.842Z,3.57
2019-02-09T13:00:59.226Z,3.60
2019-02-09T13:03:31.444Z,3.27
2019-02-09T13:06:00.541Z,3.87
2019-02-09T13:08:30.016Z,3.43
2019-02-09T13:10:59.365Z,3.73
2019-02-09T13:13:29.031Z,4.33
2019-02-09T13:15:58.501Z,3.23
2019-02-09T13:18:27.852Z,4.00
2019-02-09T13:20:57.209Z,3.60
2019-02-09T13:23:27.552Z,4.07
2019-02-09T13:25:56.892Z,3.57
2019-02-09T13:28:26.623Z,3.57
2019-02-09T13:30:56.001Z,3.47
2019-02-09T13:33:25.801Z,3.50
2019-02-09T13:35:55.150Z,4.23
2019-02-09T13:38:24.721Z,3.37
2019-02-09T13:40:54.068Z,3.57
2019-02-09T13:43:23.736Z,4.23
2019-02-09T13:45:53.596Z,3.60
2019-02-09T13:48:23.288Z,3.70
2019-02-09T13:50:52.866Z,3.40
2019-02-09T13:53:22.398Z,3.83
2019-02-09T13:55:52.117Z,3.27
2019-02-09T13:58:21.492Z,3.17
2019-02-09T14:00:51.290Z,3.30
2019-02-09T14:03:21.286Z,3.20
2019-02-09T14:05:50.628Z,3.20
2019-02-09T14:08:20.004Z,3.50
2019-02-09T14:10:49.348Z,3.00
2019-02-09T14:13:18.706Z,3.50
2019-02-09T14:15:49.790Z,3.87
2019-02-09T14:18:19.240Z,3.07
2019-02-09T14:20:48.652Z,3.47
2019-02-09T14:23:18.156Z,3.20
2019-02-09T14:25:51.364Z,3.07
2019-02-09T14:28:25.855Z,3.70
2019-02-09T14:30:55.439Z,3.47
2019-02-09T14:33:25.537Z,3.50
2019-02-09T14:35:55.439Z,3.50
2019-02-09T14:38:24.781Z,4.07
2019-02-09T14:40:55.821Z,4.20
2019-02-09T14:43:25.464Z,4.10
2019-02-09T14:45:55.043Z,3.27
2019-02-09T14:48:24.389Z,3.30
2019-02-09T14:50:54.621Z,3.17
2019-02-09T14:53:23.982Z,3.47
2019-02-09T14:55:54.193Z,3.20
2019-02-09T14:58:24.067Z,2.80
2019-02-09T15:01:01.288Z,2.80
2019-02-09T15:03:34.665Z,2.83
2019-02-09T15:06:06.962Z,2.80
2019-02-09T15:08:37.397Z,3.03
2019-02-09T15:11:06.870Z,3.00
2019-02-09T15:13:36.804Z,2.97
2019-02-09T15:16:15.462Z,3.33
2019-02-09T15:18:44.817Z,3.40
2019-02-09T15:21:16.325Z,3.90
2019-02-09T15:23:45.713Z,4.03
2019-02-09T15:26:15.062Z,3.50
2019-02-09T15:28:45.900Z,3.33
2019-02-09T15:31:15.306Z,3.83
2019-02-09T15:33:44.724Z,3.40
2019-02-09T15:36:14.070Z,3.60
2019-02-09T15:38:43.722Z,4.73
2019-02-09T15:41:13.169Z,4.20
2019-02-09T15:43:42.641Z,3.90
2019-02-09T15:46:13.025Z,3.87
2019-02-09T15:48:42.730Z,4.00
2019-02-09T15:51:12.540Z,4.10
2019-02-09T15:53:42.364Z,3.83
2019-02-09T15:56:11.983Z,3.63
2019-02-09T15:58:41.453Z,3.70
2019-02-09T16:01:10.818Z,3.73
2019-02-09T16:03:40.446Z,3.70
2019-02-09T16:06:09.892Z,3.87
2019-02-09T16:08:39.845Z,4.03
2019-02-09T16:11:10.013Z,3.53
2019-02-09T16:13:45.627Z,3.53
2019-02-09T16:16:11.032Z,3.87
2019-02-09T16:18:40.648Z,4.03
2019-02-09T16:21:10.093Z,4.27
2019-02-09T16:23:39.589Z,4.10
2019-02-09T16:26:09.249Z,5.03
2019-02-09T16:28:38.606Z,4.67
2019-02-09T16:31:09.096Z,3.60
2019-02-09T16:33:49.645Z,4.47
2019-02-09T16:36:19.249Z,3.50
2019-02-09T16:38:49.165Z,4.63
2019-02-09T16:41:18.548Z,4.37
2019-02-09T16:43:50.495Z,3.97
2019-02-09T16:46:20.275Z,4.40
2019-02-09T16:48:49.616Z,3.37
2019-02-09T16:51:19.001Z,4.10
2019-02-09T16:53:48.469Z,4.10
2019-02-09T16:56:18.039Z,3.93
2019-02-09T16:58:47.493Z,4.63
2019-02-09T17:01:16.934Z,4.30
2019-02-09T17:03:46.273Z,4.17
2019-02-09T17:06:16.115Z,4.10
2019-02-09T17:08:45.560Z,4.73
2019-02-09T17:11:15.219Z,4.57
2019-02-09T17:13:45.647Z,4.63
2019-02-09T17:16:15.268Z,5.43
2019-02-09T17:18:44.873Z,5.50
2019-02-09T17:21:14.637Z,5.00
2019-02-09T17:23:44.289Z,4.50
2019-02-09T17:26:15.066Z,4.43
2019-02-09T17:28:46.332Z,4.73
2019-02-09T17:31:16.725Z,4.17
2019-02-09T17:33:48.318Z,4.37
2019-02-09T17:36:19.568Z,4.67
2019-02-09T17:38:50.801Z,4.27
2019-02-09T17:41:20.791Z,4.57
2019-02-09T17:43:53.778Z,4.80
2019-02-09T17:46:23.070Z,4.93
2019-02-09T17:48:52.655Z,4.43
2019-02-09T17:51:22.529Z,5.40
2019-02-09T17:53:51.873Z,4.53
2019-02-09T17:56:21.631Z,5.30
2019-02-09T17:58:51.031Z,4.63
2019-02-09T18:01:21.949Z,4.67
2019-02-09T18:03:52.403Z,4.20
2019-02-09T18:06:22.840Z,5.00
2019-02-09T18:08:53.130Z,4.43
2019-02-09T18:11:23.125Z,4.40
2019-02-09T18:13:53.030Z,4.07
2019-02-09T18:16:23.021Z,4.73
2019-02-09T18:18:53.660Z,4.53
2019-02-09T18:21:24.831Z,4.93
2019-02-09T18:23:54.578Z,5.40
2019-02-09T18:26:27.497Z,4.33
2019-02-09T18:28:57.864Z,4.30
2019-02-09T18:31:28.344Z,5.03
2019-02-09T18:34:25.323Z,4.40
2019-02-09T18:36:55.133Z,4.70
2019-02-09T18:39:24.480Z,3.80
2019-02-09T18:41:54.005Z,4.20
2019-02-09T18:44:25.989Z,4.00
2019-02-09T18:46:56.945Z,3.90
2019-02-09T18:49:29.429Z,3.90
2019-02-09T18:51:59.178Z,4.13
2019-02-09T18:54:29.008Z,4.10
2019-02-09T18:56:58.959Z,4.63
2019-02-09T18:59:30.587Z,3.87
2019-02-09T19:02:01.579Z,4.80
2019-02-09T19:04:31.510Z,3.63
2019-02-09T19:07:01.951Z,4.40
2019-02-09T19:09:31.309Z,4.20
2019-02-09T19:12:01.017Z,4.37
2019-02-09T19:14:30.361Z,4.70
2019-02-09T19:17:00.096Z,4.67
2019-02-09T19:19:29.555Z,3.97
2019-02-09T19:22:01.071Z,4.30
2019-02-09T19:24:31.213Z,4.10
2019-02-09T19:27:00.874Z,4.10
2019-02-09T19:29:30.321Z,4.07
2019-02-09T19:31:59.769Z,4.33
2019-02-09T19:34:29.145Z,4.10
2019-02-09T19:36:59.732Z,3.93
2019-02-09T19:39:30.285Z,3.83
2019-02-09T19:42:00.489Z,4.60
2019-02-09T19:44:32.687Z,4.20
2019-02-09T19:47:02.394Z,4.83
2019-02-09T19:49:32.603Z,3.40
2019-02-09T19:52:02.590Z,3.40
2019-02-09T19:54:32.188Z,4.67
2019-02-09T19:57:02.652Z,4.67
2019-02-09T19:59:32.097Z,4.50
2019-02-09T20:02:01.444Z,3.97
2019-02-09T20:04:32.380Z,4.13
2019-02-09T20:07:01.975Z,3.97
2019-02-09T20:09:31.593Z,4.07
2019-02-09T20:12:01.755Z,4.27
2019-02-09T20:14:32.130Z,3.90
2019-02-09T20:17:01.554Z,4.20
2019-02-09T20:19:31.917Z,4.23
2019-02-09T20:22:01.345Z,4.60
2019-02-09T20:24:31.628Z,4.77
2019-02-09T20:27:01.063Z,4.03
2019-02-09T20:29:31.021Z,4.33
2019-02-09T20:32:00.621Z,4.87
2019-02-09T20:34:30.289Z,4.37
2019-02-09T20:36:59.629Z,4.17
2019-02-09T20:39:32.158Z,4.60
2019-02-09T20:42:02.073Z,4.73
2019-02-09T20:44:31.777Z,4.50
2019-02-09T20:47:01.700Z,4.23
2019-02-09T20:49:31.156Z,4.17
2019-02-09T20:52:01.790Z,4.00
2019-02-09T20:54:31.233Z,4.20
2019-02-09T20:57:00.630Z,4.87
2019-02-09T20:59:30.072Z,3.70
2019-02-09T21:01:59.766Z,4.80
2019-02-09T21:04:29.429Z,3.70
2019-02-09T21:07:03.695Z,4.50
2019-02-09T21:09:33.143Z,4.83
2019-02-09T21:12:04.413Z,4.37
2019-02-09T21:14:34.040Z,5.37
2019-02-09T21:17:05.197Z,3.70
2019-02-09T21:19:38.464Z,4.90
2019-02-09T21:22:07.906Z,3.90
2019-02-09T21:24:42.678Z,4.37
2019-02-09T21:27:13.154Z,4.83
2019-02-09T21:29:54.608Z,4.73
2019-02-09T21:32:25.979Z,5.03
2019-02-09T21:34:58.711Z,4.40
2019-02-09T21:37:34.718Z,4.37
2019-02-09T21:40:08.517Z,4.27
2019-02-09T21:42:39.848Z,4.10
2019-02-09T21:45:13.321Z,4.53
2019-02-09T21:47:43.510Z,4.10
2019-02-09T21:50:20.215Z,4.77
2019-02-09T21:52:50.667Z,4.63
2019-02-09T21:55:22.390Z,6.30
2019-02-09T21:58:08.928Z,4.70
2019-02-09T22:00:41.040Z,4.47
2019-02-09T22:03:15.709Z,5.23
2019-02-09T22:05:51.950Z,4.73
2019-02-09T22:08:21.472Z,3.90
2019-02-09T22:10:52.658Z,4.43
2019-02-09T22:13:22.422Z,4.73
2019-02-09T22:15:54.395Z,4.87
2019-02-09T22:18:25.910Z,4.27
2019-02-09T22:20:55.485Z,4.17
2019-02-09T22:23:25.013Z,4.17
2019-02-09T22:25:54.485Z,5.23
2019-02-09T22:28:24.844Z,3.57
2019-02-09T22:30:54.494Z,4.07
2019-02-09T22:33:25.105Z,3.80
2019-02-09T22:35:59.840Z,5.37
2019-02-09T22:41:09.871Z,5.37
2019-02-09T22:43:40.105Z,4.53
2019-02-09T22:46:23.576Z,4.97
2019-02-09T22:49:00.949Z,3.90
2019-02-09T22:51:31.063Z,5.10
2019-02-09T22:54:12.097Z,4.67
2019-02-09T22:56:41.472Z,4.93
2019-02-09T22:59:10.927Z,4.17
2019-02-09T23:01:44.345Z,5.03
2019-02-09T23:04:19.277Z,5.33
2019-02-09T23:06:52.689Z,4.77
2019-02-09T23:09:23.013Z,5.10
2019-02-09T23:11:52.636Z,4.67
2019-02-09T23:14:22.097Z,4.63
2019-02-09T23:16:51.446Z,4.20
2019-02-09T23:19:20.890Z,4.40
2019-02-09T23:21:50.268Z,5.13
2019-02-09T23:24:19.603Z,4.73
2019-02-09T23:26:49.212Z,6.27
2019-02-09T23:29:18.711Z,4.33
2019-02-09T23:31:48.050Z,4.07
2019-02-09T23:34:17.492Z,4.20
2019-02-09T23:36:46.942Z,4.33
2019-02-09T23:39:16.288Z,5.40
2019-02-09T23:41:46.000Z,5.73
2019-02-09T23:44:15.481Z,5.83
2019-02-09T23:46:44.922Z,5.20
2019-02-09T23:49:15.096Z,4.70
2019-02-09T23:51:44.566Z,4.40
2019-02-09T23:54:13.908Z,4.70
2019-02-09T23:56:43.252Z,4.33
2019-02-09T23:59:12.673Z,5.13
